sensor_id;sensor_type;location;lat;lon;timestamp;P1;durP1;ratioP1;P2;durP2;ratioP2
57307;SDS011;43152;50.968;18.214;2023-03-31T00:06:39;1.60;;;0.60;;
57307;SDS011;43152;50.968;18.214;2023-03-31T00:16:27;3.80;;;0.90;;
57307;SDS011;43152;50.968;18.214;2023-03-31T00:26:27;6.90;;;2.20;;
57307;SDS011;43152;50.968;18.214;2023-03-31T00:36:11;6.50;;;1.30;;
57307;SDS011;43152;50.968;18.214;2023-03-31T00:56:05;6.90;;;1.60;;
57307;SDS011;43152;50.968;18.214;2023-03-31T01:05:56;5.60;;;1.90;;
57307;SDS011;43152;50.968;18.214;2023-03-31T01:15:43;6.50;;;1.60;;
57307;SDS011;43152;50.968;18.214;2023-03-31T01:54:49;6.90;;;2.10;;
57307;SDS011;43152;50.968;18.214;2023-03-31T02:05:13;6.80;;;2.10;;
57307;SDS011;43152;50.968;18.214;2023-03-31T02:15:04;13.50;;;2.70;;
57307;SDS011;43152;50.968;18.214;2023-03-31T02:24:57;6.60;;;2.40;;
57307;SDS011;43152;50.968;18.214;2023-03-31T02:34:56;6.40;;;2.50;;
57307;SDS011;43152;50.968;18.214;2023-03-31T02:44:41;9.30;;;3.80;;
57307;SDS011;43152;50.968;18.214;2023-03-31T03:16:00;10.60;;;3.40;;
57307;SDS011;43152;50.968;18.214;2023-03-31T03:25:49;10.00;;;2.90;;
57307;SDS011;43152;50.968;18.214;2023-03-31T03:35:33;9.30;;;4.80;;
57307;SDS011;43152;50.968;18.214;2023-03-31T03:45:15;11.10;;;4.70;;
57307;SDS011;43152;50.968;18.214;2023-03-31T03:54:57;22.60;;;5.80;;
57307;SDS011;43152;50.968;18.214;2023-03-31T04:04:40;26.10;;;9.10;;
57307;SDS011;43152;50.968;18.214;2023-03-31T04:14:21;21.80;;;9.60;;
57307;SDS011;43152;50.968;18.214;2023-03-31T04:24:09;16.70;;;5.50;;
57307;SDS011;43152;50.968;18.214;2023-03-31T04:41:34;32.20;;;10.40;;
57307;SDS011;43152;50.968;18.214;2023-03-31T04:51:17;308.10;;;59.60;;
57307;SDS011;43152;50.968;18.214;2023-03-31T05:01:02;52.90;;;14.20;;
57307;SDS011;43152;50.968;18.214;2023-03-31T05:10:48;33.10;;;14.40;;
57307;SDS011;43152;50.968;18.214;2023-03-31T05:20:31;22.30;;;11.20;;
57307;SDS011;43152;50.968;18.214;2023-03-31T05:30:15;58.80;;;30.40;;
57307;SDS011;43152;50.968;18.214;2023-03-31T05:39:58;37.80;;;17.10;;
57307;SDS011;43152;50.968;18.214;2023-03-31T05:49:41;29.00;;;8.30;;
57307;SDS011;43152;50.968;18.214;2023-03-31T05:59:24;23.40;;;10.90;;
57307;SDS011;43152;50.968;18.214;2023-03-31T06:09:08;16.20;;;7.40;;
57307;SDS011;43152;50.968;18.214;2023-03-31T06:18:54;12.20;;;5.40;;
57307;SDS011;43152;50.968;18.214;2023-03-31T06:28:42;13.40;;;6.00;;
57307;SDS011;43152;50.968;18.214;2023-03-31T06:38:30;8.40;;;4.30;;
57307;SDS011;43152;50.968;18.214;2023-03-31T06:48:12;12.00;;;5.80;;
57307;SDS011;43152;50.968;18.214;2023-03-31T06:57:58;7.10;;;3.10;;
57307;SDS011;43152;50.968;18.214;2023-03-31T07:07:43;10.70;;;4.30;;
57307;SDS011;43152;50.968;18.214;2023-03-31T07:17:26;8.30;;;3.20;;
57307;SDS011;43152;50.968;18.214;2023-03-31T07:27:09;11.50;;;2.30;;
57307;SDS011;43152;50.968;18.214;2023-03-31T07:36:53;6.30;;;3.10;;
57307;SDS011;43152;50.968;18.214;2023-03-31T07:46:41;4.20;;;1.90;;
57307;SDS011;43152;50.968;18.214;2023-03-31T07:56:26;6.20;;;1.70;;
57307;SDS011;43152;50.968;18.214;2023-03-31T08:06:10;10.10;;;3.10;;
57307;SDS011;43152;50.968;18.214;2023-03-31T08:15:59;8.90;;;2.20;;
57307;SDS011;43152;50.968;18.214;2023-03-31T08:25:41;6.90;;;1.80;;
57307;SDS011;43152;50.968;18.214;2023-03-31T08:35:35;5.00;;;1.10;;
57307;SDS011;43152;50.968;18.214;2023-03-31T08:45:34;7.20;;;1.40;;
57307;SDS011;43152;50.968;18.214;2023-03-31T08:55:43;11.70;;;2.00;;
57307;SDS011;43152;50.968;18.214;2023-03-31T09:06:03;3.10;;;0.90;;
57307;SDS011;43152;50.968;18.214;2023-03-31T09:16:15;7.70;;;3.50;;
57307;SDS011;43152;50.968;18.214;2023-03-31T09:36:24;13.00;;;2.90;;
57307;SDS011;43152;50.968;18.214;2023-03-31T09:46:18;11.60;;;3.80;;
57307;SDS011;43152;50.968;18.214;2023-03-31T10:06:45;8.10;;;2.60;;
57307;SDS011;43152;50.968;18.214;2023-03-31T10:16:32;5.00;;;1.50;;
57307;SDS011;43152;50.968;18.214;2023-03-31T10:26:42;1.80;;;1.10;;
57307;SDS011;43152;50.968;18.214;2023-03-31T10:36:36;4.10;;;1.70;;
57307;SDS011;43152;50.968;18.214;2023-03-31T10:56:57;9.70;;;1.80;;
57307;SDS011;43152;50.968;18.214;2023-03-31T11:18:12;4.40;;;1.30;;
57307;SDS011;43152;50.968;18.214;2023-03-31T11:38:38;8.40;;;1.30;;
57307;SDS011;43152;50.968;18.214;2023-03-31T11:48:38;8.50;;;0.90;;
57307;SDS011;43152;50.968;18.214;2023-03-31T11:58:36;5.10;;;0.60;;
57307;SDS011;43152;50.968;18.214;2023-03-31T12:08:59;8.20;;;0.90;;
57307;SDS011;43152;50.968;18.214;2023-03-31T12:19:31;9.10;;;1.10;;
57307;SDS011;43152;50.968;18.214;2023-03-31T12:29:59;5.70;;;0.90;;
57307;SDS011;43152;50.968;18.214;2023-03-31T12:50:29;3.30;;;0.60;;
57307;SDS011;43152;50.968;18.214;2023-03-31T13:21:18;8.90;;;1.00;;
57307;SDS011;43152;50.968;18.214;2023-03-31T14:13:42;6.10;;;1.20;;
57307;SDS011;43152;50.968;18.214;2023-03-31T14:44:11;4.80;;;1.80;;
57307;SDS011;43152;50.968;18.214;2023-03-31T14:54:18;10.60;;;2.40;;
57307;SDS011;43152;50.968;18.214;2023-03-31T15:07:59;26.50;;;9.70;;
57307;SDS011;43152;50.968;18.214;2023-03-31T15:15:26;28.40;;;17.60;;
57307;SDS011;43152;50.968;18.214;2023-03-31T15:25:27;85.70;;;30.50;;
57307;SDS011;43152;50.968;18.214;2023-03-31T15:35:21;68.00;;;27.90;;
57307;SDS011;43152;50.968;18.214;2023-03-31T15:58:56;101.80;;;39.70;;
57307;SDS011;43152;50.968;18.214;2023-03-31T16:08:46;107.20;;;35.40;;
57307;SDS011;43152;50.968;18.214;2023-03-31T16:18:47;17.20;;;4.90;;
57307;SDS011;43152;50.968;18.214;2023-03-31T16:36:19;12.10;;;4.50;;
57307;SDS011;43152;50.968;18.214;2023-03-31T16:46:05;8.80;;;3.00;;
57307;SDS011;43152;50.968;18.214;2023-03-31T16:55:52;26.10;;;9.20;;
57307;SDS011;43152;50.968;18.214;2023-03-31T17:05:40;14.00;;;6.30;;
57307;SDS011;43152;50.968;18.214;2023-03-31T17:15:26;18.70;;;6.30;;
57307;SDS011;43152;50.968;18.214;2023-03-31T17:25:12;18.60;;;10.00;;
57307;SDS011;43152;50.968;18.214;2023-03-31T17:34:55;35.00;;;11.60;;
57307;SDS011;43152;50.968;18.214;2023-03-31T17:44:38;36.60;;;15.40;;
57307;SDS011;43152;50.968;18.214;2023-03-31T17:54:23;16.80;;;5.90;;
57307;SDS011;43152;50.968;18.214;2023-03-31T18:04:07;9.30;;;3.70;;
57307;SDS011;43152;50.968;18.214;2023-03-31T18:13:51;66.00;;;28.30;;
57307;SDS011;43152;50.968;18.214;2023-03-31T18:23:35;22.70;;;9.60;;
57307;SDS011;43152;50.968;18.214;2023-03-31T18:33:20;17.30;;;7.30;;
57307;SDS011;43152;50.968;18.214;2023-03-31T18:43:03;52.30;;;22.30;;
57307;SDS011;43152;50.968;18.214;2023-03-31T18:52:48;43.50;;;21.50;;
57307;SDS011;43152;50.968;18.214;2023-03-31T19:02:34;46.50;;;19.50;;
57307;SDS011;43152;50.968;18.214;2023-03-31T19:12:17;64.50;;;32.00;;
57307;SDS011;43152;50.968;18.214;2023-03-31T19:22:03;135.70;;;57.90;;
57307;SDS011;43152;50.968;18.214;2023-03-31T19:31:48;65.70;;;28.20;;
57307;SDS011;43152;50.968;18.214;2023-03-31T19:41:32;31.90;;;12.60;;
57307;SDS011;43152;50.968;18.214;2023-03-31T19:51:18;22.50;;;10.10;;
57307;SDS011;43152;50.968;18.214;2023-03-31T20:01:03;21.50;;;6.00;;
57307;SDS011;43152;50.968;18.214;2023-03-31T20:10:56;8.50;;;3.80;;
57307;SDS011;43152;50.968;18.214;2023-03-31T20:20:48;20.70;;;6.50;;
57307;SDS011;43152;50.968;18.214;2023-03-31T20:30:31;20.80;;;8.20;;
57307;SDS011;43152;50.968;18.214;2023-03-31T20:40:14;13.50;;;5.70;;
57307;SDS011;43152;50.968;18.214;2023-03-31T20:49:59;13.00;;;4.60;;
57307;SDS011;43152;50.968;18.214;2023-03-31T20:59:42;12.10;;;4.00;;
57307;SDS011;43152;50.968;18.214;2023-03-31T21:09:27;13.30;;;3.00;;
57307;SDS011;43152;50.968;18.214;2023-03-31T21:19:09;11.70;;;4.80;;
57307;SDS011;43152;50.968;18.214;2023-03-31T21:28:53;14.70;;;5.80;;
57307;SDS011;43152;50.968;18.214;2023-03-31T21:38:40;14.00;;;4.50;;
57307;SDS011;43152;50.968;18.214;2023-03-31T21:48:28;16.50;;;4.40;;
57307;SDS011;43152;50.968;18.214;2023-03-31T21:58:12;13.70;;;4.30;;
57307;SDS011;43152;50.968;18.214;2023-03-31T22:21:51;16.10;;;5.20;;
57307;SDS011;43152;50.968;18.214;2023-03-31T22:31:37;9.60;;;3.90;;
57307;SDS011;43152;50.968;18.214;2023-03-31T22:41:19;8.30;;;4.10;;
57307;SDS011;43152;50.968;18.214;2023-03-31T22:51:02;9.00;;;3.30;;
57307;SDS011;43152;50.968;18.214;2023-03-31T23:00:53;10.10;;;3.40;;
57307;SDS011;43152;50.968;18.214;2023-03-31T23:10:37;9.90;;;2.40;;
57307;SDS011;43152;50.968;18.214;2023-03-31T23:20:21;7.40;;;2.30;;
57307;SDS011;43152;50.968;18.214;2023-03-31T23:30:06;6.40;;;2.40;;
57307;SDS011;43152;50.968;18.214;2023-03-31T23:39:48;7.60;;;2.70;;
57307;SDS011;43152;50.968;18.214;2023-03-31T23:56:53;10.00;;;3.20;;
